SNCT weather

Ubaporanga Airport
Caratinga, Minas Gerais, Brazil

Public forecast

Using degrees Celsius for public forecast. Weather courtesy of forecast.io.

METAR (pilot weather report)

Closest report is Usiminas Airport, 26.2 nm (48.5 km) NW. Retrieved 2019/07/23 14:00 UTC (38 minutes ago):

SBIP 231400Z 02008KT 9999 SCT020 BKN030 23/16 Q1025

TAF (pilot weather forecast)

Forecast is more than 12 hours old.

Closest forecast is Serro Airport, 100.2 nm (185.5 km) NW. Retrieved 2009/11/03 09:30 UTC (10 years ago):

TAF SNSO 030930Z 0312/0418 06010G20KT CAVOK TEMPO 0315/0319 5000 HZ